createdAt,value
2018-09-12T00:01:12.824Z,5.77
2018-09-12T00:03:42.182Z,7.80
2018-09-12T00:06:11.451Z,5.93
2018-09-12T00:08:40.783Z,7.87
2018-09-12T00:11:10.206Z,8.53
2018-09-12T00:13:39.623Z,10.67
2018-09-12T00:16:08.967Z,8.60
2018-09-12T00:18:38.322Z,11.07
2018-09-12T00:21:08.417Z,7.50
2018-09-12T00:23:37.680Z,5.50
2018-09-12T00:26:07.246Z,8.73
2018-09-12T00:28:36.663Z,8.83
2018-09-12T00:31:06.187Z,8.37
2018-09-12T00:33:35.551Z,10.07
2018-09-12T00:36:04.842Z,11.80
2018-09-12T00:38:34.158Z,9.40
2018-09-12T00:41:03.473Z,9.13
2018-09-12T00:43:32.856Z,5.60
2018-09-12T00:46:02.143Z,6.87
2018-09-12T00:48:31.754Z,11.77
2018-09-12T00:51:01.037Z,7.67
2018-09-12T00:53:30.315Z,9.03
2018-09-12T00:55:59.633Z,9.87
2018-09-12T00:58:28.943Z,9.13
2018-09-12T01:00:58.265Z,12.00
2018-09-12T01:03:27.519Z,8.80
2018-09-12T01:05:56.771Z,9.90
2018-09-12T01:08:26.018Z,11.60
2018-09-12T01:10:55.297Z,10.87
2018-09-12T01:13:24.544Z,10.87
2018-09-12T01:15:53.856Z,10.43
2018-09-12T01:18:23.102Z,13.47
2018-09-12T01:20:52.428Z,9.30
2018-09-12T01:23:22.236Z,12.37
2018-09-12T01:25:51.467Z,12.57
2018-09-12T01:28:20.776Z,12.47
2018-09-12T01:30:50.062Z,12.43
2018-09-12T01:33:19.299Z,13.40
2018-09-12T01:35:48.639Z,9.13
2018-09-12T01:38:17.896Z,16.00
2018-09-12T01:40:47.235Z,9.43
2018-09-12T01:43:16.476Z,9.47
2018-09-12T01:45:45.738Z,15.93
2018-09-12T01:48:14.976Z,16.30
2018-09-12T01:50:44.184Z,14.90
2018-09-12T01:53:13.443Z,12.10
2018-09-12T01:55:42.694Z,14.20
2018-09-12T01:58:11.948Z,12.20
2018-09-12T02:00:42.312Z,12.93
2018-09-12T02:03:11.860Z,13.63
2018-09-12T02:05:41.126Z,16.87
2018-09-12T02:08:10.780Z,21.13
2018-09-12T02:10:40.151Z,12.67
2018-09-12T02:13:09.402Z,15.30
2018-09-12T02:15:38.769Z,14.80
2018-09-12T02:18:08.063Z,17.33
2018-09-12T02:20:37.314Z,17.47
2018-09-12T02:23:06.612Z,18.13
2018-09-12T02:25:35.900Z,20.73
2018-09-12T02:28:05.322Z,19.83
2018-09-12T02:30:34.869Z,17.83
2018-09-12T02:33:04.207Z,18.03
2018-09-12T02:35:33.516Z,20.30
2018-09-12T02:38:02.851Z,18.47
2018-09-12T02:40:32.196Z,20.93
2018-09-12T02:43:01.500Z,18.03
2018-09-12T02:45:30.899Z,19.80
2018-09-12T02:48:00.123Z,17.70
2018-09-12T02:50:29.451Z,21.90
2018-09-12T02:52:59.803Z,18.37
2018-09-12T02:55:29.047Z,21.40
2018-09-12T02:57:58.338Z,18.03
2018-09-12T03:00:27.627Z,18.00
2018-09-12T03:02:56.902Z,20.67
2018-09-12T03:05:26.218Z,18.07
2018-09-12T03:07:55.550Z,17.13
2018-09-12T03:10:24.842Z,23.77
2018-09-12T03:12:54.103Z,22.10
2018-09-12T03:15:24.551Z,18.93
2018-09-12T03:17:53.845Z,18.27
2018-09-12T03:20:23.552Z,21.87
2018-09-12T03:22:52.823Z,25.03
2018-09-12T03:25:22.120Z,18.90
2018-09-12T03:27:51.379Z,24.13
2018-09-12T03:30:20.759Z,24.63
2018-09-12T03:32:49.966Z,24.47
2018-09-12T03:35:19.200Z,17.60
2018-09-12T03:37:48.479Z,20.33
2018-09-12T03:40:17.745Z,19.77
2018-09-12T03:42:47.095Z,22.87
2018-09-12T03:45:16.374Z,21.37
2018-09-12T03:47:45.630Z,22.00
2018-09-12T03:50:14.914Z,22.73
2018-09-12T03:52:44.120Z,21.83
2018-09-12T03:55:13.414Z,19.23
2018-09-12T03:57:42.673Z,20.37
2018-09-12T04:00:11.955Z,21.23
2018-09-12T04:02:41.246Z,19.27
2018-09-12T04:05:10.492Z,18.77
2018-09-12T04:07:39.749Z,20.73
2018-09-12T04:10:09.032Z,20.43
2018-09-12T04:12:38.278Z,25.40
2018-09-12T04:15:07.723Z,22.13
2018-09-12T04:17:37.781Z,21.20
2018-09-12T04:20:07.119Z,18.30
2018-09-12T04:22:36.419Z,19.70
2018-09-12T04:25:05.741Z,19.70
2018-09-12T04:27:34.999Z,18.30
2018-09-12T04:30:04.335Z,15.43
2018-09-12T04:32:34.027Z,20.13
2018-09-12T04:35:03.344Z,20.43
2018-09-12T04:37:32.692Z,17.00
2018-09-12T04:40:02.028Z,19.47
2018-09-12T04:42:31.307Z,18.10
2018-09-12T04:45:00.554Z,18.80
2018-09-12T04:47:29.788Z,18.13
2018-09-12T04:49:59.354Z,20.90
2018-09-12T04:52:28.603Z,18.63
2018-09-12T04:54:57.905Z,23.70
2018-09-12T04:57:27.139Z,20.27
2018-09-12T04:59:56.401Z,20.77
2018-09-12T05:02:25.684Z,18.63
2018-09-12T05:04:54.956Z,16.13
2018-09-12T05:07:26.236Z,19.10
2018-09-12T05:09:55.499Z,17.03
2018-09-12T05:12:24.779Z,15.83
2018-09-12T05:14:54.031Z,17.97
2018-09-12T05:17:23.287Z,15.47
2018-09-12T05:19:53.627Z,15.20
2018-09-12T05:22:22.911Z,17.27
2018-09-12T05:24:52.178Z,13.33
2018-09-12T05:27:21.499Z,21.03
2018-09-12T05:29:50.795Z,14.43
2018-09-12T05:32:20.112Z,12.87
2018-09-12T05:34:49.433Z,16.63
2018-09-12T05:37:18.941Z,15.20
2018-09-12T05:39:48.178Z,18.17
2018-09-12T05:42:17.530Z,16.00
2018-09-12T05:44:46.836Z,20.20
2018-09-12T05:47:16.162Z,18.63
2018-09-12T05:49:45.451Z,17.67
2018-09-12T05:52:14.772Z,20.90
2018-09-12T05:54:44.095Z,15.37
2018-09-12T05:57:13.379Z,18.30
2018-09-12T05:59:42.707Z,14.80
2018-09-12T06:02:12.258Z,18.33
2018-09-12T06:04:41.579Z,18.67
2018-09-12T06:07:11.225Z,18.87
2018-09-12T06:09:40.372Z,19.90
2018-09-12T06:12:09.710Z,22.77
2018-09-12T06:14:39.038Z,16.80
2018-09-12T06:17:08.397Z,19.00
2018-09-12T06:19:37.729Z,20.47
2018-09-12T06:22:07.071Z,19.67
2018-09-12T06:24:36.404Z,18.13
2018-09-12T06:27:06.722Z,20.60
2018-09-12T06:29:36.044Z,20.83
2018-09-12T06:32:05.431Z,23.70
2018-09-12T06:34:34.683Z,20.57
2018-09-12T06:37:04.405Z,19.17
2018-09-12T06:39:33.670Z,20.43
2018-09-12T06:42:03.002Z,19.77
2018-09-12T06:44:32.651Z,21.07
2018-09-12T06:47:01.887Z,17.70
2018-09-12T06:49:31.295Z,22.53
2018-09-12T06:52:00.570Z,18.90
2018-09-12T06:54:29.936Z,19.37
2018-09-12T06:56:59.195Z,20.80
2018-09-12T06:59:28.538Z,22.60
2018-09-12T07:01:57.801Z,19.77
2018-09-12T07:04:27.355Z,24.67
2018-09-12T07:06:56.579Z,21.77
2018-09-12T07:09:25.842Z,22.17
2018-09-12T07:11:55.107Z,23.43
2018-09-12T07:14:24.588Z,20.53
2018-09-12T07:16:53.910Z,21.37
2018-09-12T07:19:23.643Z,20.07
2018-09-12T07:21:53.159Z,21.23
2018-09-12T07:24:22.459Z,17.20
2018-09-12T07:26:51.750Z,18.00
2018-09-12T07:29:20.957Z,20.13
2018-09-12T07:31:50.277Z,15.40
2018-09-12T07:34:19.474Z,16.03
2018-09-12T07:36:48.746Z,17.67
2018-09-12T07:39:19.107Z,15.90
2018-09-12T07:41:50.277Z,15.83
2018-09-12T07:44:19.699Z,16.47
2018-09-12T07:46:48.953Z,14.73
2018-09-12T07:49:18.249Z,15.90
2018-09-12T07:51:47.405Z,20.93
2018-09-12T07:54:16.856Z,16.20
2018-09-12T07:56:46.444Z,17.40
2018-09-12T07:59:16.386Z,16.73
2018-09-12T08:01:45.857Z,21.80
2018-09-12T08:04:15.185Z,16.17
2018-09-12T08:06:44.485Z,14.83
2018-09-12T08:09:14.471Z,14.07
2018-09-12T08:11:44.113Z,15.03
2018-09-12T08:14:13.382Z,15.27
2018-09-12T08:16:42.804Z,15.70
2018-09-12T08:19:12.149Z,15.03
2018-09-12T08:21:41.526Z,16.27
2018-09-12T08:24:10.814Z,15.87
2018-09-12T08:26:40.070Z,17.33
2018-09-12T08:29:09.322Z,16.43
2018-09-12T08:31:38.587Z,15.53
2018-09-12T08:34:07.859Z,18.13
2018-09-12T08:36:37.244Z,16.43
2018-09-12T08:39:09.032Z,18.77
2018-09-12T08:41:38.478Z,15.60
2018-09-12T08:44:08.392Z,15.67
2018-09-12T08:46:37.716Z,14.67
2018-09-12T08:49:07.050Z,14.67
2018-09-12T08:51:36.366Z,16.47
2018-09-12T08:54:05.839Z,17.17
2018-09-12T08:56:35.158Z,17.73
2018-09-12T08:59:04.579Z,14.53
2018-09-12T09:01:33.957Z,13.73
2018-09-12T09:04:03.229Z,13.77
2018-09-12T09:06:32.431Z,14.80
2018-09-12T09:09:01.790Z,15.70
2018-09-12T09:11:31.027Z,15.77
2018-09-12T09:14:00.564Z,14.00
2018-09-12T09:16:29.852Z,12.63
2018-09-12T09:18:59.293Z,12.27
2018-09-12T09:21:28.725Z,14.00
2018-09-12T09:23:58.245Z,14.37
2018-09-12T09:26:27.638Z,14.27
2018-09-12T09:28:57.395Z,14.43
2018-09-12T09:31:26.698Z,15.70
2018-09-12T09:33:56.247Z,8.37
2018-09-12T09:36:25.619Z,6.30
2018-09-12T09:38:54.907Z,4.27
2018-09-12T09:41:24.094Z,5.43
2018-09-12T09:43:53.541Z,3.60
2018-09-12T09:46:22.858Z,4.03
2018-09-12T09:48:52.215Z,3.70
2018-09-12T09:51:21.432Z,3.90
2018-09-12T09:53:50.812Z,3.23
2018-09-12T09:56:20.049Z,2.27
2018-09-12T09:58:49.307Z,2.40
2018-09-12T10:03:31.019Z,1.60
2018-09-12T10:06:05.439Z,2.07
2018-09-12T10:08:40.066Z,2.30
2018-09-12T10:11:09.455Z,1.60
2018-09-12T10:13:38.670Z,3.63
2018-09-12T10:16:08.226Z,2.93
2018-09-12T10:18:38.148Z,3.20
2018-09-12T10:21:07.644Z,2.00
2018-09-12T10:23:37.298Z,3.17
2018-09-12T10:26:06.879Z,4.03
2018-09-12T10:28:36.162Z,2.80
2018-09-12T10:31:05.491Z,3.30
2018-09-12T10:33:34.823Z,2.40
2018-09-12T10:36:04.035Z,2.30
2018-09-12T10:38:33.335Z,2.43
2018-09-12T10:41:02.740Z,4.37
2018-09-12T10:43:31.971Z,3.07
2018-09-12T10:46:01.301Z,4.47
2018-09-12T10:48:31.583Z,6.00
2018-09-12T10:51:01.081Z,6.03
2018-09-12T10:53:30.358Z,6.30
2018-09-12T10:55:59.796Z,5.53
2018-09-12T10:58:29.040Z,6.13
2018-09-12T11:00:58.655Z,5.33
2018-09-12T11:03:27.914Z,5.20
2018-09-12T11:05:57.182Z,4.43
2018-09-12T11:08:26.651Z,4.73
2018-09-12T11:10:57.731Z,5.57
2018-09-12T11:13:26.984Z,6.77
2018-09-12T11:15:56.547Z,5.67
2018-09-12T11:18:25.822Z,7.37
2018-09-12T11:20:56.269Z,5.87
2018-09-12T11:23:26.273Z,6.07
2018-09-12T11:25:55.668Z,5.00
2018-09-12T11:28:25.006Z,7.17
2018-09-12T11:30:55.228Z,6.17
2018-09-12T11:33:24.443Z,7.33
2018-09-12T11:35:55.884Z,8.70
2018-09-12T11:38:25.163Z,5.43
2018-09-12T11:40:54.401Z,7.03
2018-09-12T11:43:25.114Z,7.50
2018-09-12T11:45:54.411Z,8.70
2018-09-12T11:48:23.642Z,6.90
2018-09-12T11:50:53.331Z,10.40
2018-09-12T11:53:22.554Z,6.17
2018-09-12T11:55:51.921Z,7.90
2018-09-12T11:58:21.341Z,6.93
2018-09-12T12:00:52.006Z,7.63
2018-09-12T12:03:23.049Z,7.43
2018-09-12T12:05:52.330Z,9.30
2018-09-12T12:08:21.579Z,8.73
2018-09-12T12:10:51.825Z,6.53
2018-09-12T12:13:21.497Z,6.90
2018-09-12T12:15:50.712Z,7.60
2018-09-12T12:18:20.011Z,8.27
2018-09-12T12:20:49.263Z,5.13
2018-09-12T12:23:18.485Z,7.97
2018-09-12T12:25:47.771Z,8.00
2018-09-12T12:28:17.015Z,8.03
2018-09-12T12:30:46.272Z,7.73
2018-09-12T12:33:15.640Z,8.23
2018-09-12T12:35:45.404Z,7.93
2018-09-12T12:38:14.947Z,10.53
2018-09-12T12:40:44.301Z,9.90
2018-09-12T12:43:13.539Z,11.03
2018-09-12T12:45:43.025Z,10.87
2018-09-12T12:48:13.227Z,9.63
2018-09-12T12:50:42.441Z,10.77
2018-09-12T12:53:11.784Z,8.63
2018-09-12T12:55:41.077Z,9.50
2018-09-12T12:58:14.796Z,10.70
2018-09-12T13:00:44.091Z,9.87
2018-09-12T13:03:13.339Z,8.23
2018-09-12T13:05:42.798Z,13.30
2018-09-12T13:08:14.628Z,9.20
2018-09-12T13:10:43.874Z,9.53
2018-09-12T13:13:13.398Z,10.50
2018-09-12T13:15:45.939Z,12.80
2018-09-12T13:18:15.307Z,9.63
2018-09-12T13:20:44.507Z,10.27
2018-09-12T13:23:13.797Z,9.20
2018-09-12T13:25:43.075Z,9.53
2018-09-12T13:28:12.521Z,8.03
2018-09-12T13:30:44.483Z,9.27
2018-09-12T13:33:13.789Z,7.50
2018-09-12T13:35:43.416Z,7.63
2018-09-12T13:38:12.639Z,5.77
2018-09-12T13:40:47.066Z,6.83
2018-09-12T13:43:16.403Z,6.23
2018-09-12T13:45:45.823Z,5.60
2018-09-12T13:48:18.043Z,5.27
2018-09-12T13:50:47.356Z,4.13
2018-09-12T13:53:16.631Z,2.40
2018-09-12T13:55:45.851Z,3.17
2018-09-12T13:58:15.983Z,5.37
2018-09-12T14:00:47.739Z,3.97
2018-09-12T14:03:17.291Z,5.13
2018-09-12T14:05:46.510Z,3.60
2018-09-12T14:08:15.846Z,4.00
2018-09-12T14:10:45.076Z,4.17
2018-09-12T14:13:14.325Z,2.83
2018-09-12T14:15:43.601Z,3.50
2018-09-12T14:18:12.843Z,2.70
2018-09-12T14:20:42.129Z,3.07
2018-09-12T14:23:11.356Z,5.00
2018-09-12T14:25:40.582Z,3.80
2018-09-12T14:28:10.070Z,4.77
2018-09-12T14:30:39.426Z,2.60
2018-09-12T14:33:13.888Z,7.83
2018-09-12T14:35:43.129Z,4.33
2018-09-12T14:38:12.711Z,4.80
2018-09-12T14:40:41.966Z,4.60
2018-09-12T14:43:13.152Z,3.50
2018-09-12T14:45:43.908Z,3.63
2018-09-12T14:48:13.434Z,4.30
2018-09-12T14:50:42.821Z,4.63
2018-09-12T14:53:12.171Z,5.03
2018-09-12T14:55:44.064Z,3.90
2018-09-12T14:58:13.359Z,3.87
2018-09-12T15:00:45.563Z,4.13
2018-09-12T15:03:15.015Z,5.00
2018-09-12T15:05:44.272Z,10.17
2018-09-12T15:08:13.546Z,6.03
2018-09-12T15:10:42.791Z,4.77
2018-09-12T15:13:12.096Z,4.10
2018-09-12T15:15:41.493Z,4.23
2018-09-12T15:18:10.825Z,6.10
2018-09-12T15:20:40.111Z,5.03
2018-09-12T15:23:09.353Z,8.93
2018-09-12T15:25:38.654Z,4.70
2018-09-12T15:28:07.899Z,5.53
2018-09-12T15:30:38.695Z,4.97
2018-09-12T15:33:08.287Z,5.47
2018-09-12T15:35:37.532Z,6.90
2018-09-12T15:38:06.792Z,3.97
2018-09-12T15:40:36.348Z,5.13
2018-09-12T15:43:05.875Z,6.57
2018-09-12T15:45:35.823Z,7.43
2018-09-12T15:48:05.198Z,6.43
2018-09-12T15:50:34.418Z,9.53
2018-09-12T15:53:04.029Z,7.63
2018-09-12T15:55:33.350Z,10.67
2018-09-12T15:58:02.724Z,10.57
2018-09-12T16:00:32.023Z,7.83
2018-09-12T16:03:01.296Z,8.00
2018-09-12T16:05:30.588Z,5.50
2018-09-12T16:07:59.840Z,4.50
2018-09-12T16:10:29.067Z,4.83
2018-09-12T16:13:01.556Z,7.93
2018-09-12T16:15:30.873Z,8.70
2018-09-12T16:18:01.343Z,6.20
2018-09-12T16:20:30.799Z,7.33
2018-09-12T16:23:00.088Z,5.23
2018-09-12T16:25:29.549Z,5.40
2018-09-12T16:27:59.146Z,5.00
2018-09-12T16:30:28.375Z,5.37
2018-09-12T16:32:57.794Z,4.77
2018-09-12T16:35:26.975Z,6.43
2018-09-12T16:37:56.275Z,11.83
2018-09-12T16:40:25.502Z,4.37
2018-09-12T16:42:54.746Z,4.67
2018-09-12T16:45:24.056Z,7.23
2018-09-12T16:47:53.272Z,6.13
2018-09-12T16:50:22.515Z,4.97
2018-09-12T16:52:51.802Z,5.63
2018-09-12T16:55:21.203Z,3.90
2018-09-12T16:57:50.506Z,4.57
2018-09-12T17:00:20.654Z,4.97
2018-09-12T17:02:50.042Z,4.20
2018-09-12T17:05:19.418Z,4.57
2018-09-12T17:07:48.687Z,6.37
2018-09-12T17:10:17.931Z,6.17
2018-09-12T17:12:47.179Z,6.07
2018-09-12T17:15:16.446Z,4.97
2018-09-12T17:17:46.770Z,5.30
2018-09-12T17:20:16.088Z,5.90
2018-09-12T17:22:45.243Z,4.33
2018-09-12T17:25:14.492Z,6.30
2018-09-12T17:27:43.863Z,4.50
2018-09-12T17:30:13.235Z,3.80
2018-09-12T17:32:42.497Z,5.30
2018-09-12T17:35:11.798Z,3.10
2018-09-12T17:37:40.968Z,3.83
2018-09-12T17:40:10.254Z,4.43
2018-09-12T17:42:39.455Z,3.67
2018-09-12T17:45:09.074Z,3.93
2018-09-12T17:47:38.315Z,4.83
2018-09-12T17:50:07.583Z,2.23
2018-09-12T17:52:36.842Z,3.77
2018-09-12T17:55:06.211Z,4.10
2018-09-12T17:57:35.468Z,4.73
2018-09-12T18:00:04.995Z,3.20
2018-09-12T18:02:34.283Z,3.70
2018-09-12T18:05:04.239Z,4.23
2018-09-12T18:07:33.456Z,2.40
2018-09-12T18:10:02.774Z,2.27
2018-09-12T18:12:32.022Z,3.10
2018-09-12T18:15:01.285Z,4.63
2018-09-12T18:17:30.615Z,4.27
2018-09-12T18:19:59.786Z,3.20
2018-09-12T18:22:29.109Z,2.50
2018-09-12T18:24:58.370Z,4.50
2018-09-12T18:27:27.642Z,3.80
2018-09-12T18:29:57.060Z,4.10
2018-09-12T18:32:26.434Z,2.97
2018-09-12T18:34:55.704Z,2.93
2018-09-12T18:37:25.143Z,3.50
2018-09-12T18:39:54.333Z,3.20
2018-09-12T18:42:24.192Z,3.67
2018-09-12T18:44:53.588Z,3.43
2018-09-12T18:47:22.868Z,4.77
2018-09-12T18:49:53.611Z,3.97
2018-09-12T18:52:24.500Z,3.93
2018-09-12T18:54:54.031Z,3.80
2018-09-12T18:57:24.986Z,4.23
2018-09-12T18:59:54.579Z,3.13
2018-09-12T19:02:23.888Z,3.67
2018-09-12T19:04:54.835Z,3.67
2018-09-12T19:07:24.318Z,4.27
2018-09-12T19:09:53.692Z,3.23
2018-09-12T19:12:22.923Z,3.60
2018-09-12T19:14:53.594Z,6.43
2018-09-12T19:17:24.499Z,4.10
2018-09-12T19:19:54.125Z,4.17
2018-09-12T19:22:24.525Z,3.37
2018-09-12T19:24:53.839Z,3.70
2018-09-12T19:27:23.154Z,5.93
2018-09-12T19:29:52.469Z,3.90
2018-09-12T19:32:23.527Z,3.77
2018-09-12T19:34:55.493Z,5.37
2018-09-12T19:37:25.820Z,5.23
2018-09-12T19:39:55.266Z,4.40
2018-09-12T19:42:25.227Z,6.00
2018-09-12T19:44:54.610Z,4.30
2018-09-12T19:47:24.199Z,5.73
2018-09-12T19:49:53.550Z,5.43
2018-09-12T19:52:22.859Z,6.37
2018-09-12T19:54:52.181Z,4.10
2018-09-12T19:57:21.406Z,4.30
2018-09-12T19:59:50.679Z,4.93
2018-09-12T20:02:32.051Z,20.03
2018-09-12T20:05:01.736Z,4.57
2018-09-12T20:07:32.200Z,4.70
2018-09-12T20:10:01.476Z,5.00
2018-09-12T20:12:30.774Z,5.50
2018-09-12T20:15:02.636Z,4.30
2018-09-12T20:17:31.899Z,5.07
2018-09-12T20:20:01.477Z,6.70
2018-09-12T20:22:30.782Z,6.77
2018-09-12T20:25:00.143Z,4.10
2018-09-12T20:27:29.550Z,4.50
2018-09-12T20:29:58.943Z,4.90
2018-09-12T20:32:28.308Z,6.60
2018-09-12T20:34:57.571Z,4.70
2018-09-12T20:37:27.948Z,10.43
2018-09-12T20:39:57.383Z,4.27
2018-09-12T20:42:26.679Z,5.10
2018-09-12T20:44:56.045Z,2.50
2018-09-12T20:47:25.334Z,5.13
2018-09-12T20:49:54.655Z,5.73
2018-09-12T20:52:26.089Z,4.67
2018-09-12T20:54:55.411Z,3.63
2018-09-12T20:57:24.799Z,4.77
2018-09-12T20:59:54.199Z,3.77
2018-09-12T21:02:23.451Z,4.43
2018-09-12T21:04:52.641Z,5.17
2018-09-12T21:07:21.898Z,3.33
2018-09-12T21:09:51.590Z,4.30
2018-09-12T21:12:20.872Z,3.93
2018-09-12T21:14:50.159Z,5.03
2018-09-12T21:17:19.452Z,3.43
2018-09-12T21:19:48.864Z,4.07
2018-09-12T21:22:18.142Z,3.63
2018-09-12T21:24:47.422Z,5.97
2018-09-12T21:27:16.645Z,4.00
2018-09-12T21:29:46.008Z,6.50
2018-09-12T21:32:15.263Z,4.33
2018-09-12T21:34:59.075Z,3.60
2018-09-12T21:37:28.389Z,2.90
2018-09-12T21:39:57.672Z,5.57
2018-09-12T21:42:27.217Z,3.63
2018-09-12T21:44:56.515Z,3.53
2018-09-12T21:47:25.824Z,5.37
2018-09-12T21:49:55.131Z,6.77
2018-09-12T21:52:24.472Z,4.90
2018-09-12T21:54:53.696Z,4.57
2018-09-12T21:57:22.916Z,5.70
2018-09-12T21:59:52.144Z,4.73
2018-09-12T22:02:21.431Z,3.43
2018-09-12T22:04:50.811Z,4.10
2018-09-12T22:07:20.060Z,3.93
2018-09-12T22:09:49.347Z,4.37
2018-09-12T22:12:18.603Z,5.33
2018-09-12T22:14:47.827Z,4.77
2018-09-12T22:17:17.179Z,6.03
2018-09-12T22:19:46.454Z,6.53
2018-09-12T22:22:15.803Z,6.23
2018-09-12T22:24:45.472Z,6.90
2018-09-12T22:27:14.746Z,7.30
2018-09-12T22:29:44.024Z,4.43
2018-09-12T22:32:13.275Z,5.80
2018-09-12T22:34:42.594Z,4.03
2018-09-12T22:37:11.975Z,5.53
2018-09-12T22:39:41.218Z,6.60
2018-09-12T22:42:11.705Z,7.00
2018-09-12T22:44:40.961Z,3.90
2018-09-12T22:47:10.291Z,4.13
2018-09-12T22:49:39.595Z,5.87
2018-09-12T22:52:08.906Z,6.30
2018-09-12T22:54:38.107Z,5.70
2018-09-12T22:57:07.374Z,5.40
2018-09-12T22:59:36.722Z,4.57
2018-09-12T23:02:06.201Z,4.73
2018-09-12T23:04:35.480Z,5.00
2018-09-12T23:07:04.868Z,5.87
2018-09-12T23:09:34.166Z,5.47
2018-09-12T23:12:03.431Z,4.67
2018-09-12T23:14:32.735Z,5.70
2018-09-12T23:17:02.063Z,5.80
2018-09-12T23:19:31.454Z,4.67
2018-09-12T23:22:00.881Z,5.00
2018-09-12T23:24:30.227Z,6.07
2018-09-12T23:26:59.614Z,6.13
2018-09-12T23:29:46.120Z,7.13
2018-09-12T23:32:15.399Z,4.97
2018-09-12T23:34:44.639Z,7.60
2018-09-12T23:37:13.879Z,4.97
2018-09-12T23:39:43.157Z,5.43
2018-09-12T23:42:12.467Z,6.20
2018-09-12T23:44:41.727Z,5.83
2018-09-12T23:47:10.978Z,6.73
2018-09-12T23:49:40.179Z,8.83
2018-09-12T23:52:09.588Z,4.77
2018-09-12T23:54:38.830Z,4.00
2018-09-12T23:57:08.234Z,5.67
2018-09-12T23:59:38.011Z,5.60
